Nearby METAR Reports

 

KGRB - Ashwaubenon, Wisconsin, USA
Distance from station: NW 5mi, 8km
Updated: Tue, 25-Jun-2019 8:53pm CDT
Few Clouds
Few Clouds
 Wind from W
Wind: W 12 mph , 19 km/h
Temperature: 75°F , 24°C
Dew Point: 57°F , 14°C
Humidity: 54%
Barometer: 29.77 inHg , 1008.1 hPa
Clouds: Few Clouds
Visibility: 10 miles , 16 km
Cloud details: Few Clouds 7000 ft
2019/06/26 01:53 KGRB 260153Z 27010KT 10SM FEW070 24/14 A2977 RMK AO2 SLP079 T02390139
KATW - Appleton/Outagam, Wisconsin, USA
Distance from station: WSW 26mi, 42km
Updated: Tue, 25-Jun-2019 9:45pm CDT
Partly cloudy
Partly cloudy
 Wind from WSW
Wind: WSW 7 mph , 11 km/h
Temperature: 70°F , 21°C
Dew Point: 50°F , 10°C
Humidity: 50%
Barometer: 29.82 inHg , 1009.8 hPa
Clouds: Partly cloudy
Visibility: 10 miles , 16 km
Cloud details: Partly cloudy 7500 ft
2019/06/26 02:45 KATW 260245Z 25006KT 10SM SCT075 21/10 A2982
 
KMTW - Manitowac Muni, Wisconsin, USA
Distance from station: SE 29mi, 47km
Updated: Tue, 25-Jun-2019 8:56pm CDT
Clear
Clear
 Wind from SW
Wind: SW 7 mph , 11 km/h
Temperature: 73°F , 23°C
Dew Point: 63°F , 17°C
Humidity: 69%
Barometer: 29.78 inHg , 1008.5 hPa
Clouds: Clear
Visibility: 10 miles , 16 km
2019/06/26 01:56 KMTW 260156Z AUTO 23006KT 10SM CLR 23/17 A2978 RMK AO2 SLP082 T02330172
KOCQ - Oconto, Wisconsin, USA
Distance from station: NNE 30mi, 49km
Updated: Tue, 25-Jun-2019 9:35pm CDT
Clear
Clear
 Wind from WSW
Wind: WSW 5 mph , 7 km/h
Temperature: 72°F , 22°C
Dew Point: 55°F , 13°C
Humidity: 57%
Barometer: 29.77 inHg , 1008.1 hPa
Clouds: Clear
Visibility: 10 miles , 16 km
2019/06/26 02:35 KOCQ 260235Z AUTO 25004KT 10SM CLR 22/13 A2977 RMK AO1 T02200126
 
KEZS - Shawano Muni, Wisconsin, USA
Distance from station: NW 35mi, 56km
Updated: Tue, 25-Jun-2019 9:35pm CDT
Clear
Clear
 Wind from WSW
Wind: WSW 5 mph , 7 km/h
Temperature: 73°F , 23°C
Dew Point: 55°F , 13°C
Humidity: 53%
Barometer: 29.79 inHg , 1008.8 hPa
Clouds: Clear
Visibility: 10 miles , 16 km
2019/06/26 02:35 KEZS 260235Z AUTO 25004KT 10SM CLR 23/13 A2979 RMK AO2 T02280125
KCLI - Clintonville, Wisconsin, USA
Distance from station: WNW 36mi, 58km
Updated: Tue, 25-Jun-2019 9:35pm CDT
Clear
Clear
 Wind from W
Wind: W 6 mph , 9 km/h
Temperature: 72°F , 22°C
Dew Point: 54°F , 12°C
Humidity: 53%
Barometer: 29.81 inHg , 1009.5 hPa
Clouds: Clear
Visibility: 10 miles , 16 km
2019/06/26 02:35 KCLI 260235Z AUTO 26005KT 10SM CLR 22/12 A2981 RMK AO2 T02220115
 
KOSH - Oshkosh, Wisconsin, USA
Distance from station: SW 41mi, 66km
Updated: Tue, 25-Jun-2019 8:53pm CDT
Few Clouds
Few Clouds
 Wind from W
Wind: W 6 mph , 9 km/h
Temperature: 73°F , 23°C
Dew Point: 59°F , 15°C
Humidity: 61%
Barometer: 29.80 inHg , 1009.1 hPa
Clouds: Few Clouds
Visibility: 10 miles , 16 km
Cloud details: Few Clouds 6500 ft
2019/06/26 01:53 KOSH 260153Z 26005KT 10SM FEW065 23/15 A2980 RMK AO2 SLP079 T02330150
KSUE - Sturgeon Bay, Wisconsin, USA
Distance from station: NE 42mi, 68km
Updated: Tue, 25-Jun-2019 8:56pm CDT
Partly cloudy
Partly cloudy
 Wind from SW
Wind: SW 8 mph , 13 km/h
Temperature: 73°F , 23°C
Dew Point: 64°F , 18°C
Humidity: 74%
Barometer: 29.76 inHg , 1007.8 hPa
Clouds: Partly cloudy
Visibility: 10 miles , 16 km
Cloud details: Partly cloudy 5500 ft
Partly cloudy 7000 ft
Partly cloudy 10000 ft
2019/06/26 01:56 KSUE 260156Z AUTO 23007KT 10SM SCT055 SCT070 SCT100 23/18 A2976 RMK AO2 SLP072 T02330178
 
KSBM - Sheboygan, Wisconsin, USA
Distance from station: SSE 46mi, 75km
Updated: Tue, 25-Jun-2019 8:53pm CDT
Few Clouds
Few Clouds
 Wind from SW
Wind: SW 9 mph , 15 km/h
Temperature: 73°F , 23°C
Dew Point: 63°F , 17°C
Humidity: 69%
Barometer: 29.79 inHg , 1008.8 hPa
Clouds: Few Clouds
Visibility: 10 miles , 16 km
Cloud details: Few Clouds 6000 ft
2019/06/26 01:53 KSBM 260153Z AUTO 23008KT 10SM FEW060 23/17 A2979 RMK AO2 SLP085 T02280167
KPCZ - Waupaca, Wisconsin, USA
Distance from station: W 48mi, 77km
Updated: Tue, 25-Jun-2019 9:35pm CDT
Clear
Clear
 Wind from calm
Wind: Calm
Temperature: 70°F , 21°C
Dew Point: 55°F , 13°C
Humidity: 60%
Barometer: 29.82 inHg , 1009.8 hPa
Clouds: Clear
Visibility: 10 miles , 16 km
2019/06/26 02:35 KPCZ 260235Z AUTO 00000KT 10SM CLR 21/13 A2982 RMK AO2 T02140130